Time;durP1;ratioP1;P1;durP2;ratioP2;P2;SDS_P1;SDS_P2;PMS_P1;PMS_P2;Temp;Humidity;BMP_temperature;BMP_pressure;BME280_temperature;BME280_humidity;BME280_pressure;Samples;Min_cycle;Max_cycle;Signal;HPM_P1;HPM_P2
2024/01/22 00:03:23;;;;;;;10.27;4.38;;;;;;;4.75;71.64;100816.47;10275730;28;20054;-63
2024/01/22 00:08:24;;;;;;;8.20;4.00;;;;;;;4.82;72.11;100814.16;10277094;28;20086;-62
2024/01/22 00:13:26;;;;;;;11.48;4.47;;;;;;;4.86;71.89;100796.97;10264206;28;20043;-62
2024/01/22 00:18:27;;;;;;;8.18;4.10;;;;;;;4.89;71.79;100823.31;10277221;28;20401;-62
2024/01/22 00:23:29;;;;;;;8.55;4.55;;;;;;;4.94;71.67;100802.47;10273737;28;20139;-62
2024/01/22 00:28:30;;;;;;;12.18;4.70;;;;;;;5.06;71.48;100810.44;10276357;28;20049;-61
2024/01/22 00:33:32;;;;;;;14.50;5.00;;;;;;;5.03;71.42;100790.19;10275001;28;20047;-62
2024/01/22 00:38:33;;;;;;;11.27;5.35;;;;;;;5.12;70.78;100769.94;10258416;28;20042;-63
2024/01/22 00:43:36;;;;;;;8.18;4.45;;;;;;;5.16;71.75;100755.38;10276302;28;20061;-62
2024/01/22 00:48:38;;;;;;;9.55;5.18;;;;;;;5.18;70.65;100748.09;10274823;28;20046;-61
2024/01/22 00:53:40;;;;;;;10.15;4.60;;;;;;;5.14;71.28;100744.00;10251436;28;20078;-61
2024/01/22 00:58:41;;;;;;;7.60;4.35;;;;;;;5.06;71.38;100746.50;10257953;28;20122;-62
2024/01/22 01:03:42;;;;;;;9.48;4.70;;;;;;;5.11;71.27;100728.28;10273789;28;20051;-61
2024/01/22 01:08:44;;;;;;;8.38;4.15;;;;;;;5.20;71.66;100722.16;10273812;28;20043;-62
2024/01/22 01:13:45;;;;;;;10.50;3.63;;;;;;;5.28;70.72;100730.34;10274678;28;20150;-62
2024/01/22 01:18:47;;;;;;;7.50;3.60;;;;;;;5.32;70.89;100722.91;10274843;28;20046;-62
2024/01/22 01:23:49;;;;;;;6.07;2.97;;;;;;;5.33;70.72;100724.59;10273660;28;20047;-62
2024/01/22 01:28:51;;;;;;;9.43;3.17;;;;;;;5.35;70.84;100722.63;10273854;28;20047;-62
2024/01/22 01:33:55;;;;;;;5.65;2.65;;;;;;;5.38;71.38;100706.41;10274150;28;20047;-62
2024/01/22 01:38:57;;;;;;;6.82;2.78;;;;;;;5.44;71.01;100699.69;10274426;28;20105;-62
2024/01/22 01:43:58;;;;;;;16.52;4.40;;;;;;;5.44;70.96;100692.53;10274114;28;20170;-62
2024/01/22 01:49:00;;;;;;;11.40;3.42;;;;;;;5.46;71.40;100679.91;10273588;28;20062;-61
2024/01/22 01:54:05;;;;;;;7.68;3.03;;;;;;;5.51;71.10;100674.16;10273116;28;20058;-61
2024/01/22 01:59:06;;;;;;;12.07;2.80;;;;;;;5.53;70.85;100666.91;10273821;28;20047;-62
2024/01/22 02:04:08;;;;;;;11.25;3.25;;;;;;;5.55;71.11;100643.59;10272316;28;20138;-62
2024/01/22 02:09:10;;;;;;;9.68;2.70;;;;;;;5.54;70.76;100641.91;10272626;28;20062;-63
2024/01/22 02:14:12;;;;;;;11.93;3.25;;;;;;;5.56;71.23;100653.28;10271473;28;20524;-62
2024/01/22 02:19:13;;;;;;;7.57;2.22;;;;;;;5.56;70.37;100629.28;10274795;28;20053;-63
2024/01/22 02:24:15;;;;;;;6.80;2.60;;;;;;;5.53;71.36;100611.75;10273516;28;20565;-63
2024/01/22 02:29:17;;;;;;;5.85;2.50;;;;;;;5.57;71.18;100601.66;10273985;28;20113;-62
2024/01/22 02:34:19;;;;;;;4.90;1.92;;;;;;;5.64;70.55;100597.44;10279840;28;20126;-62
2024/01/22 02:39:21;;;;;;;8.10;2.42;;;;;;;5.70;70.05;100606.72;10280681;28;20073;-62
2024/01/22 02:44:23;;;;;;;6.28;3.03;;;;;;;5.72;70.67;100591.41;10279207;28;20050;-62
2024/01/22 02:49:24;;;;;;;6.18;2.00;;;;;;;5.66;70.20;100591.97;10281078;28;20057;-63
2024/01/22 02:54:27;;;;;;;6.38;1.90;;;;;;;5.68;70.21;100572.16;10279829;28;20078;-63
2024/01/22 02:59:29;;;;;;;8.82;2.75;;;;;;;5.65;70.25;100545.78;10278342;28;20482;-62
2024/01/22 03:04:30;;;;;;;5.82;2.00;;;;;;;5.63;70.44;100542.44;10276265;28;20061;-62
2024/01/22 03:09:32;;;;;;;4.53;1.92;;;;;;;5.66;70.70;100547.47;10278374;28;20046;-61
2024/01/22 03:14:34;;;;;;;4.32;1.85;;;;;;;5.72;70.14;100552.25;10277901;28;20066;-62
2024/01/22 03:19:36;;;;;;;7.15;2.38;;;;;;;5.68;70.59;100534.84;10277724;28;20062;-62
2024/01/22 03:24:37;;;;;;;6.30;1.88;;;;;;;5.69;70.59;100535.69;10277522;28;20502;-62
2024/01/22 03:29:39;;;;;;;6.30;1.73;;;;;;;5.75;70.39;100501.28;10277751;28;20610;-61
2024/01/22 03:34:40;;;;;;;5.25;1.77;;;;;;;5.80;70.26;100505.38;10277283;28;20050;-61
2024/01/22 03:39:42;;;;;;;5.65;1.55;;;;;;;5.87;69.99;100483.31;10275524;28;20133;-60
2024/01/22 03:44:43;;;;;;;7.00;1.52;;;;;;;5.87;69.72;100466.47;10277441;28;20050;-61
2024/01/22 03:49:45;;;;;;;7.65;1.77;;;;;;;5.82;70.27;100458.03;10276235;28;20070;-62
2024/01/22 03:54:47;;;;;;;8.10;1.48;;;;;;;5.82;70.23;100450.88;10277826;28;20137;-61
2024/01/22 03:59:49;;;;;;;4.78;1.45;;;;;;;5.75;70.06;100439.94;10277077;28;20046;-61
2024/01/22 04:04:52;;;;;;;7.05;1.52;;;;;;;5.79;70.31;100418.34;10276089;28;20121;-61
2024/01/22 04:09:53;;;;;;;5.78;1.70;;;;;;;5.86;70.05;100412.25;10276604;28;20062;-62
2024/01/22 04:14:54;;;;;;;8.23;1.80;;;;;;;5.89;69.92;100398.66;10275480;28;20047;-61
2024/01/22 04:19:56;;;;;;;6.32;1.40;;;;;;;5.87;70.12;100375.78;10276435;28;20047;-60
2024/01/22 04:24:58;;;;;;;1.73;1.05;;;;;;;5.91;70.43;100369.16;10275971;28;20150;-60
2024/01/22 04:29:59;;;;;;;5.75;1.17;;;;;;;5.99;69.87;100373.81;10277920;28;20065;-61
2024/01/22 04:35:03;;;;;;;1.92;0.95;;;;;;;6.09;69.61;100370.09;10274810;28;20128;-61
2024/01/22 04:40:13;;;;;;;6.80;1.10;;;;;;;6.15;70.27;100353.50;10276696;28;20058;-61
2024/01/22 04:45:14;;;;;;;4.68;0.80;;;;;;;6.21;69.93;100351.25;10274154;28;20073;-60
2024/01/22 04:50:16;;;;;;;2.72;1.02;;;;;;;6.23;69.44;100341.25;10273776;28;20062;-60
2024/01/22 04:55:17;;;;;;;2.90;0.77;;;;;;;6.29;70.06;100329.97;10273736;28;20409;-61
2024/01/22 05:00:23;;;;;;;2.33;0.88;;;;;;;6.33;69.90;100304.66;10273353;28;20057;-61
2024/01/22 05:05:25;;;;;;;5.45;0.82;;;;;;;6.40;69.06;100308.44;10274767;28;20618;-61
2024/01/22 05:10:26;;;;;;;2.15;0.60;;;;;;;6.39;69.87;100309.41;10274642;28;20051;-61
2024/01/22 05:15:28;;;;;;;3.83;1.25;;;;;;;6.44;69.66;100327.66;10275634;28;20062;-61
2024/01/22 05:20:29;;;;;;;1.63;0.75;;;;;;;6.51;69.17;100294.84;10273584;28;20062;-61
2024/01/22 05:25:31;;;;;;;1.70;0.80;;;;;;;6.57;68.91;100279.22;10271775;28;20058;-61
2024/01/22 05:30:33;;;;;;;1.38;0.63;;;;;;;6.64;69.41;100273.13;10275074;28;20058;-61
2024/01/22 05:35:35;;;;;;;1.52;0.98;;;;;;;6.68;69.32;100266.47;10273925;28;20047;-61
2024/01/22 05:40:37;;;;;;;6.15;0.80;;;;;;;6.67;69.08;100258.63;10274294;28;20066;-61
2024/01/22 05:45:38;;;;;;;2.30;0.82;;;;;;;6.74;68.51;100252.50;10277071;28;20065;-61
2024/01/22 05:50:40;;;;;;;4.30;0.80;;;;;;;6.77;68.45;100248.69;10275366;28;20058;-62
2024/01/22 05:55:41;;;;;;;1.85;0.68;;;;;;;6.89;68.89;100228.78;10273489;28;20102;-61
2024/01/22 06:00:43;;;;;;;2.38;0.95;;;;;;;6.95;68.54;100241.50;10273232;28;20158;-62
2024/01/22 06:05:45;;;;;;;4.25;0.55;;;;;;;7.06;68.77;100229.72;10255203;28;20379;-64
2024/01/22 06:10:48;;;;;;;1.95;0.90;;;;;;;7.15;68.15;100225.28;10279633;28;20051;-62
2024/01/22 06:15:49;;;;;;;1.30;0.60;;;;;;;7.24;68.52;100228.84;10280237;28;20130;-61
2024/01/22 06:20:50;;;;;;;4.25;0.77;;;;;;;7.31;68.20;100228.03;10277365;28;20046;-61
2024/01/22 06:25:52;;;;;;;2.50;0.60;;;;;;;7.36;68.41;100219.53;10276415;28;20053;-61
2024/01/22 06:30:54;;;;;;;1.05;0.43;;;;;;;7.41;68.16;100197.69;10260448;28;20039;-60
2024/01/22 06:35:55;;;;;;;7.13;0.75;;;;;;;7.45;67.53;100197.19;10278375;28;20077;-59
2024/01/22 06:40:57;;;;;;;3.97;0.82;;;;;;;7.44;67.62;100208.06;10278640;28;20162;-61
2024/01/22 06:45:59;;;;;;;1.75;0.68;;;;;;;7.43;67.53;100211.75;10280460;28;20055;-62
2024/01/22 06:51:00;;;;;;;6.07;0.90;;;;;;;7.30;67.67;100202.28;10280454;28;20070;-61
2024/01/22 06:56:02;;;;;;;2.80;0.75;;;;;;;7.05;68.39;100211.16;10278193;28;20058;-60
2024/01/22 07:01:04;;;;;;;3.20;0.63;;;;;;;6.86;68.41;100204.19;10281582;28;20182;-66
2024/01/22 07:06:06;;;;;;;2.53;0.63;;;;;;;6.79;68.79;100182.56;10285884;28;20542;-64
2024/01/22 07:11:07;;;;;;;5.43;1.45;;;;;;;6.74;69.09;100177.72;10284813;28;20055;-65
2024/01/22 07:16:09;;;;;;;4.55;0.70;;;;;;;6.82;68.60;100178.78;10276818;28;20414;-66
2024/01/22 07:21:10;;;;;;;4.63;1.00;;;;;;;6.81;68.74;100188.59;10274374;28;20638;-67
2024/01/22 07:26:12;;;;;;;4.78;0.95;;;;;;;6.83;69.07;100183.13;10259225;28;20138;-67
2024/01/22 07:31:13;;;;;;;4.93;1.13;;;;;;;6.75;68.60;100175.88;10277128;28;20055;-71
2024/01/22 07:36:16;;;;;;;9.48;2.22;;;;;;;6.72;69.24;100179.69;10280089;28;20065;-71
2024/01/22 07:41:18;;;;;;;6.65;1.95;;;;;;;6.67;68.91;100178.47;10275907;28;20094;-71
2024/01/22 07:46:19;;;;;;;4.57;1.40;;;;;;;6.69;69.47;100195.19;10276823;28;20069;-71
2024/01/22 07:51:21;;;;;;;8.43;1.48;;;;;;;6.60;69.47;100190.81;10274683;28;20047;-71
2024/01/22 07:56:22;;;;;;;9.75;2.58;;;;;;;6.53;69.93;100195.91;10275644;28;20057;-73
2024/01/22 08:01:24;;;;;;;8.38;1.70;;;;;;;6.47;70.53;100188.50;10274244;28;20061;-73
2024/01/22 08:06:26;;;;;;;4.07;0.88;;;;;;;6.45;70.21;100179.81;10276941;28;20046;-74
2024/01/22 08:11:28;;;;;;;3.13;0.85;;;;;;;6.46;70.32;100184.16;10272672;28;20115;-71
2024/01/22 08:16:29;;;;;;;1.10;0.60;;;;;;;6.49;70.25;100187.34;10257133;28;20047;-71
2024/01/22 08:21:31;;;;;;;1.88;1.00;;;;;;;6.51;71.42;100181.88;10276572;28;20059;-72
2024/01/22 08:26:33;;;;;;;6.38;1.10;;;;;;;6.54;71.24;100179.72;10276423;28;20545;-71
2024/01/22 08:31:40;;;;;;;4.25;1.27;;;;;;;6.66;71.36;100174.97;10274495;28;20050;-72
2024/01/22 08:36:42;;;;;;;9.68;0.82;;;;;;;6.79;70.79;100163.88;10275585;28;20042;-71
2024/01/22 08:41:43;;;;;;;4.60;0.77;;;;;;;6.92;70.60;100166.16;10271871;28;20056;-72
2024/01/22 08:46:45;;;;;;;3.03;0.70;;;;;;;7.04;71.20;100164.06;10275313;28;20059;-71
2024/01/22 08:51:46;;;;;;;2.45;0.80;;;;;;;7.20;70.22;100157.97;10274467;28;20078;-71
2024/01/22 08:56:48;;;;;;;1.73;0.60;;;;;;;7.29;70.70;100135.63;10273280;28;20054;-72
2024/01/22 09:01:50;;;;;;;3.30;0.75;;;;;;;7.42;70.10;100127.97;10274836;28;20510;-71
2024/01/22 09:06:51;;;;;;;6.53;1.00;;;;;;;7.57;70.50;100138.09;10273032;28;20514;-70
2024/01/22 09:11:53;;;;;;;2.92;0.60;;;;;;;7.73;70.10;100146.16;10272818;28;20078;-72
2024/01/22 09:16:54;;;;;;;4.70;0.63;;;;;;;7.87;69.78;100161.56;10275498;28;20050;-72
2024/01/22 09:21:57;;;;;;;2.40;0.65;;;;;;;7.99;69.76;100161.28;10273400;28;20057;-72
2024/01/22 09:26:58;;;;;;;5.28;0.73;;;;;;;8.04;69.83;100149.09;10275808;28;20203;-71
2024/01/22 09:31:59;;;;;;;1.05;0.47;;;;;;;8.20;69.27;100160.81;10273158;28;20058;-71
2024/01/22 09:37:01;;;;;;;5.55;0.82;;;;;;;8.32;69.33;100144.25;10258187;28;20402;-71
2024/01/22 09:42:04;;;;;;;1.98;0.60;;;;;;;8.49;69.38;100145.16;10279922;28;20055;-70
2024/01/22 09:47:05;;;;;;;2.00;0.50;;;;;;;8.63;69.30;100162.38;10280438;28;20214;-70
2024/01/22 09:52:11;;;;;;;4.72;0.60;;;;;;;8.72;69.68;100157.84;10279771;28;20055;-69
2024/01/22 09:57:25;;;;;;;2.45;1.13;;;;;;;8.81;69.45;100146.13;10282237;28;20498;-70
2024/01/22 10:02:27;;;;;;;7.70;0.70;;;;;;;8.90;69.71;100161.16;10280042;28;20059;-70
2024/01/22 10:07:28;;;;;;;1.20;0.47;;;;;;;8.87;70.07;100148.13;10278164;28;20121;-70
2024/01/22 10:12:30;;;;;;;1.13;0.45;;;;;;;8.96;70.00;100164.19;10282026;28;20062;-71
2024/01/22 10:17:32;;;;;;;1.63;0.50;;;;;;;8.92;70.45;100144.91;10279969;28;20121;-70
2024/01/22 10:22:33;;;;;;;2.22;0.50;;;;;;;8.88;70.74;100144.41;10281333;28;20125;-70
2024/01/22 10:27:34;;;;;;;6.13;0.88;;;;;;;8.81;71.24;100135.41;10283554;28;20047;-71
2024/01/22 10:32:36;;;;;;;3.78;0.60;;;;;;;8.79;71.36;100133.88;10277990;28;20057;-71
2024/01/22 10:37:37;;;;;;;3.70;0.47;;;;;;;8.85;71.42;100126.00;10280905;28;20109;-70
2024/01/22 10:42:40;;;;;;;1.52;0.43;;;;;;;8.90;71.31;100120.97;10280084;28;20402;-70
2024/01/22 10:47:42;;;;;;;2.50;0.50;;;;;;;8.82;71.93;100110.25;10278403;28;20062;-72
2024/01/22 10:52:48;;;;;;;3.78;1.15;;;;;;;8.67;72.36;100107.44;10282683;28;20134;-72
2024/01/22 10:57:53;;;;;;;4.72;0.70;;;;;;;8.53;72.89;100098.25;10279531;28;20406;-71
2024/01/22 11:02:57;;;;;;;1.42;0.55;;;;;;;8.49;73.57;100096.06;10279616;28;20055;-71
2024/01/22 11:07:59;;;;;;;2.08;0.88;;;;;;;8.57;73.56;100088.03;10277001;28;20141;-71
2024/01/22 11:13:01;;;;;;;1.60;0.70;;;;;;;8.54;73.93;100077.66;10273105;28;20078;-71
2024/01/22 11:18:04;;;;;;;1.65;0.70;;;;;;;8.52;73.96;100075.13;10279374;28;20611;-72
2024/01/22 11:23:09;;;;;;;7.40;0.75;;;;;;;8.48;73.94;100062.25;10276295;28;20051;-72
2024/01/22 11:28:15;;;;;;;2.80;0.55;;;;;;;8.51;74.35;100053.88;10278088;28;20039;-72
2024/01/22 11:33:23;;;;;;;6.55;1.35;;;;;;;8.52;74.48;100031.44;10261707;28;20410;-72
2024/01/22 11:38:43;;;;;;;;;;;;;;;8.55;74.47;100017.72;10274366;28;20372;-71
2024/01/22 11:43:46;;;;;;;5.60;1.45;;;;;;;8.54;74.75;100008.84;10273910;28;19922;-71
2024/01/22 11:48:51;;;;;;;5.88;1.60;;;;;;;8.56;75.02;100010.53;10275876;28;20058;-71
2024/01/22 11:53:56;;;;;;;5.85;1.90;;;;;;;8.49;75.55;99988.91;10275118;28;20125;-71
2024/01/22 11:59:02;;;;;;;5.05;1.58;;;;;;;8.51;75.70;99990.44;10275433;28;20142;-72
2024/01/22 12:04:09;;;;;;;7.53;1.60;;;;;;;8.54;75.80;99983.91;10273144;28;20086;-72
2024/01/22 12:09:19;;;;;;;7.40;1.58;;;;;;;8.54;75.69;99967.81;10275030;28;20137;-72
2024/01/22 12:14:21;;;;;;;10.88;2.30;;;;;;;8.63;75.94;99963.25;10275403;28;20353;-72
2024/01/22 12:19:23;;;;;;;5.85;2.20;;;;;;;8.63;75.80;99956.06;10279362;28;20055;-73
2024/01/22 12:24:24;;;;;;;7.35;1.50;;;;;;;8.70;75.90;99942.81;10274476;28;20043;-73
2024/01/22 12:29:26;;;;;;;2.85;1.15;;;;;;;8.77;76.03;99945.63;10276893;28;20065;-73
2024/01/22 12:34:32;;;;;;;2.92;1.40;;;;;;;8.80;75.92;99938.06;10274014;28;20078;-73
2024/01/22 12:39:35;;;;;;;6.43;1.35;;;;;;;8.85;76.43;99926.84;10257799;28;20165;-74
2024/01/22 12:44:37;;;;;;;5.00;1.10;;;;;;;8.93;76.06;99935.66;10275431;28;20047;-72
2024/01/22 12:49:39;;;;;;;4.05;1.38;;;;;;;9.01;76.29;99918.72;10275031;28;20082;-72
2024/01/22 12:54:41;;;;;;;3.13;0.75;;;;;;;9.05;76.53;99928.06;10278624;28;20085;-71
2024/01/22 12:59:48;;;;;;;1.58;0.73;;;;;;;9.14;76.28;99920.78;10273978;28;20051;-73
2024/01/22 13:04:50;;;;;;;1.80;0.80;;;;;;;9.17;76.79;99911.56;10268190;28;20145;-71
2024/01/22 13:09:52;;;;;;;5.07;1.20;;;;;;;9.21;76.82;99926.28;10274329;28;20074;-71
2024/01/22 13:14:54;;;;;;;3.03;0.98;;;;;;;9.39;76.38;99901.88;10272701;28;20498;-72
2024/01/22 13:19:56;;;;;;;5.18;1.00;;;;;;;9.47;76.08;99907.16;10273092;28;20053;-71
2024/01/22 13:24:58;;;;;;;2.83;0.80;;;;;;;9.46;76.69;99908.19;10272471;28;20047;-73
2024/01/22 13:29:59;;;;;;;3.30;1.00;;;;;;;9.39;76.32;99897.31;10274130;28;20426;-71
2024/01/22 13:35:02;;;;;;;5.22;1.17;;;;;;;9.33;76.51;99898.03;10273907;28;20059;-72
2024/01/22 13:40:09;;;;;;;2.08;1.02;;;;;;;9.33;76.34;99898.03;10276975;28;20058;-72
2024/01/22 13:45:10;;;;;;;5.20;1.02;;;;;;;9.02;76.89;99900.75;10271633;28;20161;-71
2024/01/22 13:50:12;;;;;;;4.30;1.20;;;;;;;8.84;77.40;99915.28;10273832;28;20070;-69
2024/01/22 13:55:13;;;;;;;3.38;1.10;;;;;;;8.82;77.80;99919.16;10273203;28;20079;-70
2024/01/22 14:00:15;;;;;;;6.97;1.52;;;;;;;8.73;78.17;99931.75;10273407;28;20047;-73
2024/01/22 14:05:17;;;;;;;1.75;1.00;;;;;;;8.78;78.16;99931.22;10272805;28;20082;-69
2024/01/22 14:10:18;;;;;;;4.30;1.50;;;;;;;8.68;78.42;99931.44;10274156;28;20058;-72
2024/01/22 14:15:21;;;;;;;3.47;1.10;;;;;;;8.65;78.72;99931.75;10257158;28;20549;-72
2024/01/22 14:20:23;;;;;;;5.55;2.40;;;;;;;8.77;78.60;99927.72;10269597;28;20110;-68
2024/01/22 14:25:25;;;;;;;6.07;1.90;;;;;;;8.84;78.45;99926.00;10274222;28;20054;-70
2024/01/22 14:30:27;;;;;;;3.33;1.80;;;;;;;8.92;78.59;99941.19;10277773;28;20105;-72
2024/01/22 14:35:29;;;;;;;4.43;2.63;;;;;;;8.86;78.92;99953.44;10278674;28;20051;-72
2024/01/22 14:40:31;;;;;;;8.00;1.90;;;;;;;8.81;79.30;99971.09;10280472;28;20051;-74
2024/01/22 14:45:32;;;;;;;5.95;2.10;;;;;;;8.82;79.08;99962.03;10278082;28;20073;-71
2024/01/22 14:50:34;;;;;;;12.85;2.00;;;;;;;8.87;79.29;99931.00;10279156;28;20050;-72
2024/01/22 14:55:35;;;;;;;8.77;1.70;;;;;;;9.12;78.76;99925.50;10282487;28;20053;-74
2024/01/22 15:00:37;;;;;;;3.95;2.40;;;;;;;9.15;79.14;99949.28;10283008;28;20045;-73
2024/01/22 15:05:39;;;;;;;3.00;1.20;;;;;;;9.22;79.25;99952.94;10276420;28;20137;-74
2024/01/22 15:10:41;;;;;;;3.67;1.08;;;;;;;9.34;78.93;99961.41;10285072;28;20053;-71
2024/01/22 15:15:42;;;;;;;2.85;1.52;;;;;;;9.40;79.22;99963.38;10285663;28;20051;-72
2024/01/22 15:20:44;;;;;;;7.80;1.98;;;;;;;9.39;79.27;99948.28;10263047;28;21356;-72
2024/01/22 15:25:47;;;;;;;5.20;1.20;;;;;;;9.49;79.08;99973.03;10283424;28;20058;-73
2024/01/22 15:30:49;;;;;;;2.72;1.00;;;;;;;9.47;78.94;99972.38;10279426;28;20049;-73
2024/01/22 15:35:50;;;;;;;4.97;1.20;;;;;;;9.46;78.96;99969.91;10276367;28;20374;-73
2024/01/22 15:40:51;;;;;;;1.95;0.80;;;;;;;9.43;79.28;100005.13;10278740;28;20054;-74
2024/01/22 15:45:57;;;;;;;7.93;1.38;;;;;;;9.41;79.31;100009.81;10277084;28;20062;-73
2024/01/22 15:51:02;;;;;;;4.28;0.88;;;;;;;9.47;79.28;99988.47;10274645;28;20145;-75
2024/01/22 15:56:04;;;;;;;6.03;0.75;;;;;;;9.47;78.98;100007.25;10266295;28;20050;-75
2024/01/22 16:01:07;;;;;;;4.43;0.82;;;;;;;9.34;79.54;99990.94;10283980;28;20053;-74
2024/01/22 16:06:08;;;;;;;6.82;0.80;;;;;;;9.30;79.48;100019.94;10281413;28;20182;-74
2024/01/22 16:11:10;;;;;;;4.55;0.90;;;;;;;9.28;79.26;100039.88;10284101;28;20516;-76
2024/01/22 16:16:13;;;;;;;1.90;0.60;;;;;;;9.26;79.04;100034.72;10280975;28;20133;-77
2024/01/22 16:21:15;;;;;;;5.15;0.88;;;;;;;9.24;79.17;100058.19;10273460;28;20054;-65
2024/01/22 16:26:17;;;;;;;2.67;0.77;;;;;;;9.20;78.99;100075.66;10259530;28;20054;-67
2024/01/22 16:31:18;;;;;;;4.57;0.75;;;;;;;9.15;78.97;100087.91;10283010;28;20065;-68
2024/01/22 16:36:22;;;;;;;4.05;0.95;;;;;;;9.10;79.22;100123.25;10289782;28;20145;-67
2024/01/22 16:41:23;;;;;;;5.72;1.10;;;;;;;9.06;78.96;100124.63;10284002;28;20105;-68
2024/01/22 16:46:25;;;;;;;7.47;0.60;;;;;;;9.03;78.91;100120.44;10289611;28;20057;-65
2024/01/22 16:51:26;;;;;;;3.15;1.70;;;;;;;8.99;78.96;100162.00;10288026;28;20054;-67
2024/01/22 16:56:28;;;;;;;1.83;0.50;;;;;;;8.99;78.68;100145.09;10282289;28;20449;-67
2024/01/22 17:01:29;;;;;;;11.25;1.48;;;;;;;9.00;78.49;100150.25;10309774;28;20102;-68
2024/01/22 17:12:47;;;;;;;3.85;0.60;;;;;;;8.96;78.34;100189.13;10325976;28;20042;-69
2024/01/22 17:17:49;;;;;;;7.18;0.77;;;;;;;8.96;78.22;100188.31;10345317;23;20092;-83
2024/01/22 17:22:58;;;;;;;5.15;0.50;;;;;;;8.98;78.07;100205.06;10311012;28;20405;-82
2024/01/22 17:28:01;;;;;;;6.05;0.65;;;;;;;9.01;78.07;100223.50;10296205;28;20054;-83
2024/01/22 17:33:05;;;;;;;11.50;1.20;;;;;;;9.03;77.84;100216.13;10279500;28;20050;-83
2024/01/22 17:38:09;;;;;;;4.75;0.90;;;;;;;8.95;77.93;100234.91;10296054;28;20055;-84
2024/01/22 17:43:12;;;;;;;9.25;1.38;;;;;;;8.90;78.13;100232.72;10286835;28;20126;-84
2024/01/22 17:48:16;;;;;;;9.57;1.23;;;;;;;8.87;77.82;100249.16;10269407;28;20056;-82
2024/01/22 17:53:18;;;;;;;5.40;1.10;;;;;;;8.82;77.58;100271.06;10263291;28;20047;-81
2024/01/22 17:58:20;;;;;;;11.98;2.15;;;;;;;8.72;77.53;100281.13;10255224;28;20138;-82
2024/01/22 18:03:21;;;;;;;5.50;0.75;;;;;;;8.62;77.76;100291.16;10266287;28;20043;-82
2024/01/22 18:08:24;;;;;;;8.88;1.88;;;;;;;8.59;77.78;100316.44;10269057;28;20050;-83
2024/01/22 18:13:25;;;;;;;4.43;0.60;;;;;;;8.61;77.53;100327.84;10272361;28;20142;-82
2024/01/22 18:18:28;;;;;;;6.57;1.10;;;;;;;8.58;77.79;100330.00;10277976;28;20133;-83
2024/01/22 18:23:35;;;;;;;12.43;1.10;;;;;;;8.59;78.04;100345.91;10277652;28;20062;-82
2024/01/22 18:28:37;;;;;;;4.18;0.60;;;;;;;8.61;78.04;100364.50;10256146;28;20054;-84
2024/01/22 18:33:42;;;;;;;10.32;1.17;;;;;;;8.60;77.80;100381.59;10272330;28;20051;-81
2024/01/22 18:38:45;;;;;;;11.45;0.73;;;;;;;8.54;77.83;100401.81;10269884;28;20059;-82
2024/01/22 18:43:47;;;;;;;5.25;1.70;;;;;;;8.51;78.02;100426.25;10270699;28;20068;-81
2024/01/22 18:48:49;;;;;;;10.48;1.73;;;;;;;8.45;77.70;100433.09;10279204;28;20043;-82
2024/01/22 18:53:51;;;;;;;6.57;0.63;;;;;;;8.38;77.79;100456.13;10289409;28;20061;-83
2024/01/22 18:58:54;;;;;;;6.15;1.15;;;;;;;8.26;77.54;100465.44;10277763;28;20042;-85
2024/01/22 19:03:55;;;;;;;5.30;0.90;;;;;;;8.13;77.59;100480.06;10277827;28;20061;-83
2024/01/22 19:08:57;;;;;;;8.07;1.05;;;;;;;8.06;77.61;100480.88;10277505;28;20059;-84
2024/01/22 19:14:03;;;;;;;4.28;0.77;;;;;;;8.01;77.28;100488.53;10269412;28;20079;-89
2024/01/22 19:19:05;;;;;;;4.55;1.23;;;;;;;7.94;77.08;100509.72;10257104;28;20158;-86
2024/01/22 19:24:07;;;;;;;4.15;1.27;;;;;;;7.83;77.05;100513.47;10280309;28;20055;-85
2024/01/22 19:29:10;;;;;;;6.18;1.08;;;;;;;7.83;77.46;100523.34;10307317;28;20514;-84
2024/01/22 19:34:12;;;;;;;6.10;0.90;;;;;;;7.79;77.27;100519.28;10314029;28;20067;-85
2024/01/22 19:39:13;;;;;;;7.60;0.95;;;;;;;7.74;76.81;100528.63;10299059;28;20071;-83
2024/01/22 19:44:15;;;;;;;10.45;3.00;;;;;;;7.74;76.94;100536.66;10293085;28;20043;-83
2024/01/22 19:49:17;;;;;;;9.77;1.38;;;;;;;7.65;76.28;100537.56;10280101;28;20054;-83
2024/01/22 19:54:19;;;;;;;6.97;1.42;;;;;;;7.56;75.90;100565.22;10279230;28;20155;-85
2024/01/22 19:59:21;;;;;;;7.53;1.30;;;;;;;7.38;76.08;100570.53;10266713;28;20059;-82
2024/01/22 20:04:23;;;;;;;9.15;1.58;;;;;;;7.28;76.17;100573.25;10265463;28;20141;-81
2024/01/22 20:09:25;;;;;;;6.07;2.20;;;;;;;7.22;76.76;100576.53;10267768;28;20053;-82
2024/01/22 20:14:27;;;;;;;11.82;1.35;;;;;;;7.14;76.86;100584.47;10274151;28;20054;-81
2024/01/22 20:19:30;;;;;;;8.77;1.33;;;;;;;7.15;77.51;100586.16;10271675;28;20047;-82
2024/01/22 20:24:33;;;;;;;10.57;1.30;;;;;;;7.21;77.10;100580.22;10268917;28;20501;-83
2024/01/22 20:29:35;;;;;;;9.95;1.65;;;;;;;7.39;77.20;100587.44;10274211;28;20418;-82
2024/01/22 20:34:36;;;;;;;7.88;1.80;;;;;;;7.50;77.43;100587.22;10264622;28;20117;-82
2024/01/22 20:39:38;;;;;;;9.98;2.83;;;;;;;7.61;76.83;100570.13;10265611;28;20043;-82
2024/01/22 20:44:40;;;;;;;6.72;1.35;;;;;;;7.70;77.22;100586.13;10273123;28;20133;-82
2024/01/22 20:49:42;;;;;;;6.80;2.42;;;;;;;7.78;77.23;100590.72;10268969;28;20117;-84
2024/01/22 20:54:44;;;;;;;8.52;1.30;;;;;;;7.96;77.04;100569.28;10268238;28;20047;-82
2024/01/22 20:59:47;;;;;;;8.90;1.42;;;;;;;7.87;76.37;100565.69;10281679;28;20442;-82
2024/01/22 21:04:49;;;;;;;9.65;2.67;;;;;;;7.77;76.51;100569.44;10271018;28;20047;-83
2024/01/22 21:09:51;;;;;;;15.18;1.92;;;;;;;7.68;76.82;100589.91;10271037;28;20038;-82
2024/01/22 21:14:53;;;;;;;5.10;1.27;;;;;;;7.70;76.95;100602.16;10273071;28;20054;-82
2024/01/22 21:19:56;;;;;;;15.10;2.10;;;;;;;7.80;77.12;100598.56;10260757;28;20054;-82
2024/01/22 21:24:57;;;;;;;11.27;3.25;;;;;;;7.77;77.13;100610.41;10262755;28;20078;-82
2024/01/22 21:29:59;;;;;;;11.85;2.10;;;;;;;7.84;77.23;100603.47;10266229;28;20058;-81
2024/01/22 21:35:01;;;;;;;7.55;1.70;;;;;;;7.95;77.27;100600.56;10265468;28;20477;-84
2024/01/22 21:40:03;;;;;;;10.48;1.63;;;;;;;8.08;76.25;100596.69;10272880;28;20134;-81
2024/01/22 21:45:06;;;;;;;13.85;2.60;;;;;;;8.11;76.52;100599.84;10268695;28;20097;-81
2024/01/22 21:50:09;;;;;;;9.05;1.52;;;;;;;8.21;76.22;100596.28;10271344;28;20486;-81
2024/01/22 21:55:10;;;;;;;14.02;2.10;;;;;;;8.20;76.32;100594.59;10264074;28;20061;-81
2024/01/22 22:00:13;;;;;;;10.25;1.30;;;;;;;8.19;76.84;100599.09;10268955;28;20083;-81
2024/01/22 22:05:15;;;;;;;8.70;1.50;;;;;;;8.15;76.89;100584.34;10268638;28;20070;-81
2024/01/22 22:10:17;;;;;;;11.18;0.90;;;;;;;8.16;77.14;100595.91;10268263;28;20066;-82
2024/01/22 22:15:19;;;;;;;6.93;1.00;;;;;;;8.26;77.24;100593.97;10265636;28;20082;-81
2024/01/22 22:20:21;;;;;;;8.25;0.73;;;;;;;8.28;76.95;100600.03;10267466;28;20599;-81
2024/01/22 22:25:23;;;;;;;9.75;0.50;;;;;;;8.29;76.85;100607.03;10269729;28;20055;-82
2024/01/22 22:30:25;;;;;;;10.88;1.05;;;;;;;8.21;76.90;100597.09;10272923;28;20082;-81
2024/01/22 22:35:26;;;;;;;4.82;0.47;;;;;;;8.28;76.97;100597.34;10269677;28;20526;-81
2024/01/22 22:40:30;;;;;;;4.30;0.55;;;;;;;8.29;76.61;100599.00;10272017;28;20078;-81
2024/01/22 22:45:31;;;;;;;6.82;1.15;;;;;;;8.21;76.92;100585.56;10260472;28;20047;-81
2024/01/22 22:50:33;;;;;;;12.13;1.70;;;;;;;8.07;76.90;100598.50;10265739;28;20044;-80
2024/01/22 22:55:36;;;;;;;9.25;1.30;;;;;;;8.11;76.51;100623.97;10264634;28;20134;-80
2024/01/22 23:00:38;;;;;;;4.93;0.77;;;;;;;8.08;76.06;100602.03;10267399;28;20115;-80
2024/01/22 23:05:40;;;;;;;7.03;0.65;;;;;;;8.11;76.14;100607.91;10248958;28;20055;-81
2024/01/22 23:10:41;;;;;;;4.32;0.47;;;;;;;8.08;76.39;100610.06;10263898;28;20055;-80
2024/01/22 23:15:43;;;;;;;7.13;1.30;;;;;;;8.09;75.92;100628.63;10264468;28;20051;-81
2024/01/22 23:20:46;;;;;;;9.20;0.40;;;;;;;8.03;75.99;100642.63;10260566;28;20106;-80
2024/01/22 23:25:47;;;;;;;12.77;0.93;;;;;;;8.07;76.02;100644.00;10262531;28;20046;-81
2024/01/22 23:30:49;;;;;;;4.25;0.35;;;;;;;8.11;76.26;100658.75;10262878;28;20047;-81
2024/01/22 23:35:51;;;;;;;5.90;0.50;;;;;;;8.19;75.46;100657.16;10258921;28;20102;-81